sensor_id;sensor_type;location;lat;lon;timestamp;P1;durP1;ratioP1;P2;durP2;ratioP2
4634;SDS011;2330;48.158;11.816;2023-02-28T00:00:24;2.40;;;2.30;;
4634;SDS011;2330;48.158;11.816;2023-02-28T00:02:51;3.03;;;2.72;;
4634;SDS011;2330;48.158;11.816;2023-02-28T00:05:22;3.65;;;3.00;;
4634;SDS011;2330;48.158;11.816;2023-02-28T00:07:50;3.00;;;2.80;;
4634;SDS011;2330;48.158;11.816;2023-02-28T00:10:21;2.13;;;2.03;;
4634;SDS011;2330;48.158;11.816;2023-02-28T00:12:50;2.78;;;2.58;;
4634;SDS011;2330;48.158;11.816;2023-02-28T00:15:18;3.63;;;3.42;;
4634;SDS011;2330;48.158;11.816;2023-02-28T00:17:45;2.90;;;2.67;;
4634;SDS011;2330;48.158;11.816;2023-02-28T00:20:12;3.20;;;3.00;;
4634;SDS011;2330;48.158;11.816;2023-02-28T00:22:44;3.03;;;2.85;;
4634;SDS011;2330;48.158;11.816;2023-02-28T00:25:14;2.80;;;2.70;;
4634;SDS011;2330;48.158;11.816;2023-02-28T00:27:42;3.28;;;3.08;;
4634;SDS011;2330;48.158;11.816;2023-02-28T00:30:11;3.00;;;2.80;;
4634;SDS011;2330;48.158;11.816;2023-02-28T00:32:40;3.20;;;3.00;;
4634;SDS011;2330;48.158;11.816;2023-02-28T00:35:07;3.10;;;2.80;;
4634;SDS011;2330;48.158;11.816;2023-02-28T00:37:34;3.20;;;3.00;;
4634;SDS011;2330;48.158;11.816;2023-02-28T00:40:01;3.10;;;2.90;;
4634;SDS011;2330;48.158;11.816;2023-02-28T00:42:30;2.92;;;2.78;;
4634;SDS011;2330;48.158;11.816;2023-02-28T00:44:57;2.95;;;2.85;;
4634;SDS011;2330;48.158;11.816;2023-02-28T00:47:24;3.13;;;2.92;;
4634;SDS011;2330;48.158;11.816;2023-02-28T00:49:51;3.00;;;2.80;;
4634;SDS011;2330;48.158;11.816;2023-02-28T00:52:17;3.22;;;2.92;;
4634;SDS011;2330;48.158;11.816;2023-02-28T00:54:44;3.47;;;3.15;;
4634;SDS011;2330;48.158;11.816;2023-02-28T00:57:11;3.20;;;3.00;;
4634;SDS011;2330;48.158;11.816;2023-02-28T00:59:38;3.95;;;3.17;;
4634;SDS011;2330;48.158;11.816;2023-02-28T01:02:04;2.75;;;2.55;;
4634;SDS011;2330;48.158;11.816;2023-02-28T01:04:31;2.95;;;2.75;;
4634;SDS011;2330;48.158;11.816;2023-02-28T01:06:58;3.42;;;3.13;;
4634;SDS011;2330;48.158;11.816;2023-02-28T01:09:25;3.15;;;2.95;;
4634;SDS011;2330;48.158;11.816;2023-02-28T01:11:51;3.00;;;2.80;;
4634;SDS011;2330;48.158;11.816;2023-02-28T01:14:18;3.67;;;3.40;;
4634;SDS011;2330;48.158;11.816;2023-02-28T01:16:46;3.70;;;3.40;;
4634;SDS011;2330;48.158;11.816;2023-02-28T01:19:13;5.25;;;2.90;;
4634;SDS011;2330;48.158;11.816;2023-02-28T01:21:39;3.33;;;3.03;;
4634;SDS011;2330;48.158;11.816;2023-02-28T01:24:06;3.55;;;3.25;;
4634;SDS011;2330;48.158;11.816;2023-02-28T01:26:33;3.13;;;2.90;;
4634;SDS011;2330;48.158;11.816;2023-02-28T01:29:00;3.33;;;3.05;;
4634;SDS011;2330;48.158;11.816;2023-02-28T01:31:27;2.72;;;2.58;;
4634;SDS011;2330;48.158;11.816;2023-02-28T01:33:54;3.15;;;3.05;;
4634;SDS011;2330;48.158;11.816;2023-02-28T01:36:21;3.60;;;3.40;;
4634;SDS011;2330;48.158;11.816;2023-02-28T01:38:50;3.40;;;3.20;;
4634;SDS011;2330;48.158;11.816;2023-02-28T01:41:18;3.25;;;3.03;;
4634;SDS011;2330;48.158;11.816;2023-02-28T01:46:13;3.60;;;3.30;;
4634;SDS011;2330;48.158;11.816;2023-02-28T01:48:45;3.45;;;3.25;;
4634;SDS011;2330;48.158;11.816;2023-02-28T01:51:19;3.28;;;3.08;;
4634;SDS011;2330;48.158;11.816;2023-02-28T01:53:59;3.35;;;3.15;;
4634;SDS011;2330;48.158;11.816;2023-02-28T01:56:33;3.10;;;2.90;;
4634;SDS011;2330;48.158;11.816;2023-02-28T01:59:02;3.75;;;3.45;;
4634;SDS011;2330;48.158;11.816;2023-02-28T02:01:29;4.55;;;3.80;;
4634;SDS011;2330;48.158;11.816;2023-02-28T02:03:58;4.03;;;3.63;;
4634;SDS011;2330;48.158;11.816;2023-02-28T02:06:29;3.13;;;2.92;;
4634;SDS011;2330;48.158;11.816;2023-02-28T02:09:01;3.25;;;3.05;;
4634;SDS011;2330;48.158;11.816;2023-02-28T02:11:29;3.50;;;3.30;;
4634;SDS011;2330;48.158;11.816;2023-02-28T02:22:57;3.60;;;3.40;;
4634;SDS011;2330;48.158;11.816;2023-02-28T02:31:50;3.72;;;3.53;;
4634;SDS011;2330;48.158;11.816;2023-02-28T02:34:31;4.07;;;3.78;;
4634;SDS011;2330;48.158;11.816;2023-02-28T02:39:59;3.92;;;3.72;;
4634;SDS011;2330;48.158;11.816;2023-02-28T02:42:51;3.78;;;3.58;;
4634;SDS011;2330;48.158;11.816;2023-02-28T02:46:04;3.90;;;3.65;;
4634;SDS011;2330;48.158;11.816;2023-02-28T02:48:27;3.90;;;3.70;;
4634;SDS011;2330;48.158;11.816;2023-02-28T02:50:58;4.00;;;3.70;;
4634;SDS011;2330;48.158;11.816;2023-02-28T02:53:34;4.35;;;4.03;;
4634;SDS011;2330;48.158;11.816;2023-02-28T02:56:03;4.57;;;4.07;;
4634;SDS011;2330;48.158;11.816;2023-02-28T02:58:34;3.90;;;3.70;;
4634;SDS011;2330;48.158;11.816;2023-02-28T03:01:09;3.63;;;3.40;;
4634;SDS011;2330;48.158;11.816;2023-02-28T03:03:40;3.95;;;3.55;;
4634;SDS011;2330;48.158;11.816;2023-02-28T03:06:08;4.22;;;3.95;;
4634;SDS011;2330;48.158;11.816;2023-02-28T03:08:36;4.57;;;4.28;;
4634;SDS011;2330;48.158;11.816;2023-02-28T03:11:05;4.32;;;4.13;;
4634;SDS011;2330;48.158;11.816;2023-02-28T03:16:46;5.07;;;4.75;;
4634;SDS011;2330;48.158;11.816;2023-02-28T03:19:50;5.07;;;4.68;;
4634;SDS011;2330;48.158;11.816;2023-02-28T03:28:11;6.18;;;4.88;;
4634;SDS011;2330;48.158;11.816;2023-02-28T03:34:10;5.63;;;5.22;;
4634;SDS011;2330;48.158;11.816;2023-02-28T03:37:10;4.70;;;4.40;;
4634;SDS011;2330;48.158;11.816;2023-02-28T03:39:42;5.10;;;4.70;;
4634;SDS011;2330;48.158;11.816;2023-02-28T03:42:14;5.53;;;5.13;;
4634;SDS011;2330;48.158;11.816;2023-02-28T03:44:48;5.85;;;5.35;;
4634;SDS011;2330;48.158;11.816;2023-02-28T03:47:22;5.90;;;5.40;;
4634;SDS011;2330;48.158;11.816;2023-02-28T03:52:47;5.78;;;5.47;;
4634;SDS011;2330;48.158;11.816;2023-02-28T03:55:32;6.10;;;5.70;;
4634;SDS011;2330;48.158;11.816;2023-02-28T03:58:05;5.22;;;4.93;;
4634;SDS011;2330;48.158;11.816;2023-02-28T04:00:40;6.30;;;5.90;;
4634;SDS011;2330;48.158;11.816;2023-02-28T04:03:12;6.68;;;6.18;;
4634;SDS011;2330;48.158;11.816;2023-02-28T04:05:46;6.93;;;6.43;;
4634;SDS011;2330;48.158;11.816;2023-02-28T04:08:16;6.20;;;5.75;;
4634;SDS011;2330;48.158;11.816;2023-02-28T04:10:43;7.28;;;6.68;;
4634;SDS011;2330;48.158;11.816;2023-02-28T04:13:15;6.63;;;6.22;;
4634;SDS011;2330;48.158;11.816;2023-02-28T04:15:42;7.18;;;6.70;;
4634;SDS011;2330;48.158;11.816;2023-02-28T04:18:08;6.63;;;6.22;;
4634;SDS011;2330;48.158;11.816;2023-02-28T04:20:35;6.78;;;6.28;;
4634;SDS011;2330;48.158;11.816;2023-02-28T04:23:02;7.43;;;6.88;;
4634;SDS011;2330;48.158;11.816;2023-02-28T04:25:29;8.15;;;7.45;;
4634;SDS011;2330;48.158;11.816;2023-02-28T04:27:55;7.90;;;7.30;;
4634;SDS011;2330;48.158;11.816;2023-02-28T04:30:22;7.78;;;7.28;;
4634;SDS011;2330;48.158;11.816;2023-02-28T04:32:49;8.70;;;8.10;;
4634;SDS011;2330;48.158;11.816;2023-02-28T04:35:15;7.40;;;6.80;;
4634;SDS011;2330;48.158;11.816;2023-02-28T04:37:42;8.65;;;7.95;;
4634;SDS011;2330;48.158;11.816;2023-02-28T04:40:09;7.88;;;7.20;;
4634;SDS011;2330;48.158;11.816;2023-02-28T04:42:36;8.10;;;7.50;;
4634;SDS011;2330;48.158;11.816;2023-02-28T04:45:03;8.30;;;7.72;;
4634;SDS011;2330;48.158;11.816;2023-02-28T04:47:30;9.77;;;8.98;;
4634;SDS011;2330;48.158;11.816;2023-02-28T04:49:58;8.32;;;7.72;;
4634;SDS011;2330;48.158;11.816;2023-02-28T04:52:25;8.90;;;8.25;;
4634;SDS011;2330;48.158;11.816;2023-02-28T04:54:53;8.63;;;7.93;;
4634;SDS011;2330;48.158;11.816;2023-02-28T04:57:20;9.95;;;9.15;;
4634;SDS011;2330;48.158;11.816;2023-02-28T04:59:46;9.00;;;8.40;;
4634;SDS011;2330;48.158;11.816;2023-02-28T05:02:13;8.90;;;8.27;;
4634;SDS011;2330;48.158;11.816;2023-02-28T05:04:40;7.82;;;7.30;;
4634;SDS011;2330;48.158;11.816;2023-02-28T05:07:07;8.80;;;8.20;;
4634;SDS011;2330;48.158;11.816;2023-02-28T05:09:33;9.88;;;9.18;;
4634;SDS011;2330;48.158;11.816;2023-02-28T05:12:00;12.55;;;11.65;;
4634;SDS011;2330;48.158;11.816;2023-02-28T05:14:27;10.35;;;9.63;;
4634;SDS011;2330;48.158;11.816;2023-02-28T05:16:54;10.23;;;9.52;;
4634;SDS011;2330;48.158;11.816;2023-02-28T05:19:20;11.13;;;10.23;;
4634;SDS011;2330;48.158;11.816;2023-02-28T05:21:49;11.45;;;10.50;;
4634;SDS011;2330;48.158;11.816;2023-02-28T05:24:17;9.80;;;9.00;;
4634;SDS011;2330;48.158;11.816;2023-02-28T05:26:49;9.95;;;9.25;;
4634;SDS011;2330;48.158;11.816;2023-02-28T05:29:18;11.00;;;10.00;;
4634;SDS011;2330;48.158;11.816;2023-02-28T05:31:45;10.77;;;9.98;;
4634;SDS011;2330;48.158;11.816;2023-02-28T05:34:12;10.77;;;9.98;;
4634;SDS011;2330;48.158;11.816;2023-02-28T05:36:41;11.35;;;10.45;;
4634;SDS011;2330;48.158;11.816;2023-02-28T05:39:08;10.43;;;9.63;;
4634;SDS011;2330;48.158;11.816;2023-02-28T05:41:42;11.95;;;11.05;;
4634;SDS011;2330;48.158;11.816;2023-02-28T05:44:09;11.63;;;10.73;;
4634;SDS011;2330;48.158;11.816;2023-02-28T05:46:36;11.05;;;10.23;;
4634;SDS011;2330;48.158;11.816;2023-02-28T05:49:03;12.48;;;11.43;;
4634;SDS011;2330;48.158;11.816;2023-02-28T05:51:30;10.43;;;9.63;;
4634;SDS011;2330;48.158;11.816;2023-02-28T05:54:00;11.15;;;10.15;;
4634;SDS011;2330;48.158;11.816;2023-02-28T05:56:27;12.23;;;11.25;;
4634;SDS011;2330;48.158;11.816;2023-02-28T05:58:54;11.65;;;10.77;;
4634;SDS011;2330;48.158;11.816;2023-02-28T06:01:30;11.73;;;10.82;;
4634;SDS011;2330;48.158;11.816;2023-02-28T06:03:59;12.00;;;11.10;;
4634;SDS011;2330;48.158;11.816;2023-02-28T06:06:27;12.25;;;11.35;;
4634;SDS011;2330;48.158;11.816;2023-02-28T06:08:55;12.07;;;11.18;;
4634;SDS011;2330;48.158;11.816;2023-02-28T06:11:22;12.43;;;11.43;;
4634;SDS011;2330;48.158;11.816;2023-02-28T06:13:54;12.80;;;11.57;;
4634;SDS011;2330;48.158;11.816;2023-02-28T06:16:29;12.85;;;11.85;;
4634;SDS011;2330;48.158;11.816;2023-02-28T06:18:59;12.00;;;11.10;;
4634;SDS011;2330;48.158;11.816;2023-02-28T06:21:26;13.35;;;12.35;;
4634;SDS011;2330;48.158;11.816;2023-02-28T06:23:54;13.18;;;12.15;;
4634;SDS011;2330;48.158;11.816;2023-02-28T06:26:22;11.85;;;10.90;;
4634;SDS011;2330;48.158;11.816;2023-02-28T06:28:49;13.63;;;12.63;;
4634;SDS011;2330;48.158;11.816;2023-02-28T06:31:16;12.80;;;11.80;;
4634;SDS011;2330;48.158;11.816;2023-02-28T06:33:45;14.65;;;13.40;;
4634;SDS011;2330;48.158;11.816;2023-02-28T06:36:13;13.70;;;12.60;;
4634;SDS011;2330;48.158;11.816;2023-02-28T06:38:41;12.73;;;11.73;;
4634;SDS011;2330;48.158;11.816;2023-02-28T06:41:08;11.98;;;10.98;;
4634;SDS011;2330;48.158;11.816;2023-02-28T06:43:37;13.32;;;12.23;;
4634;SDS011;2330;48.158;11.816;2023-02-28T06:46:06;12.32;;;11.32;;
4634;SDS011;2330;48.158;11.816;2023-02-28T06:48:34;13.77;;;12.50;;
4634;SDS011;2330;48.158;11.816;2023-02-28T06:51:06;13.20;;;12.25;;
4634;SDS011;2330;48.158;11.816;2023-02-28T06:53:39;12.98;;;12.07;;
4634;SDS011;2330;48.158;11.816;2023-02-28T06:56:07;12.25;;;11.35;;
4634;SDS011;2330;48.158;11.816;2023-02-28T06:58:36;13.05;;;12.15;;
4634;SDS011;2330;48.158;11.816;2023-02-28T07:01:05;12.57;;;11.52;;
4634;SDS011;2330;48.158;11.816;2023-02-28T07:03:34;12.10;;;11.15;;
4634;SDS011;2330;48.158;11.816;2023-02-28T07:06:02;13.05;;;12.05;;
4634;SDS011;2330;48.158;11.816;2023-02-28T07:08:30;13.63;;;12.43;;
4634;SDS011;2330;48.158;11.816;2023-02-28T07:10:57;13.50;;;12.40;;
4634;SDS011;2330;48.158;11.816;2023-02-28T07:13:24;11.95;;;11.05;;
4634;SDS011;2330;48.158;11.816;2023-02-28T07:15:55;13.25;;;12.00;;
4634;SDS011;2330;48.158;11.816;2023-02-28T07:18:23;13.10;;;12.10;;
4634;SDS011;2330;48.158;11.816;2023-02-28T07:20:50;14.65;;;13.45;;
4634;SDS011;2330;48.158;11.816;2023-02-28T07:23:18;13.45;;;12.40;;
4634;SDS011;2330;48.158;11.816;2023-02-28T07:25:45;12.77;;;11.73;;
4634;SDS011;2330;48.158;11.816;2023-02-28T07:28:12;13.02;;;11.93;;
4634;SDS011;2330;48.158;11.816;2023-02-28T07:30:40;12.80;;;11.80;;
4634;SDS011;2330;48.158;11.816;2023-02-28T07:33:07;13.38;;;12.35;;
4634;SDS011;2330;48.158;11.816;2023-02-28T07:35:34;13.20;;;12.10;;
4634;SDS011;2330;48.158;11.816;2023-02-28T07:38:01;13.23;;;12.25;;
4634;SDS011;2330;48.158;11.816;2023-02-28T07:40:29;13.15;;;12.05;;
4634;SDS011;2330;48.158;11.816;2023-02-28T07:42:55;12.95;;;11.85;;
4634;SDS011;2330;48.158;11.816;2023-02-28T07:45:22;13.13;;;12.13;;
4634;SDS011;2330;48.158;11.816;2023-02-28T07:47:49;12.90;;;11.75;;
4634;SDS011;2330;48.158;11.816;2023-02-28T07:50:16;13.88;;;12.65;;
4634;SDS011;2330;48.158;11.816;2023-02-28T07:52:43;13.68;;;12.68;;
4634;SDS011;2330;48.158;11.816;2023-02-28T07:55:09;13.40;;;12.40;;
4634;SDS011;2330;48.158;11.816;2023-02-28T07:57:36;12.88;;;11.88;;
4634;SDS011;2330;48.158;11.816;2023-02-28T08:00:04;12.43;;;11.32;;
4634;SDS011;2330;48.158;11.816;2023-02-28T08:02:33;12.70;;;11.50;;
4634;SDS011;2330;48.158;11.816;2023-02-28T08:05:00;13.38;;;12.38;;
4634;SDS011;2330;48.158;11.816;2023-02-28T08:07:27;13.05;;;12.05;;
4634;SDS011;2330;48.158;11.816;2023-02-28T08:09:54;12.63;;;11.63;;
4634;SDS011;2330;48.158;11.816;2023-02-28T08:12:21;13.05;;;12.05;;
4634;SDS011;2330;48.158;11.816;2023-02-28T08:14:47;12.98;;;11.77;;
4634;SDS011;2330;48.158;11.816;2023-02-28T08:17:14;12.73;;;11.73;;
4634;SDS011;2330;48.158;11.816;2023-02-28T08:19:41;14.00;;;12.60;;
4634;SDS011;2330;48.158;11.816;2023-02-28T08:22:07;13.27;;;12.18;;
4634;SDS011;2330;48.158;11.816;2023-02-28T08:24:34;11.85;;;10.95;;
4634;SDS011;2330;48.158;11.816;2023-02-28T08:27:01;13.23;;;11.95;;
4634;SDS011;2330;48.158;11.816;2023-02-28T08:29:27;12.98;;;11.88;;
4634;SDS011;2330;48.158;11.816;2023-02-28T08:31:56;14.55;;;13.27;;
4634;SDS011;2330;48.158;11.816;2023-02-28T08:34:23;14.02;;;12.82;;
4634;SDS011;2330;48.158;11.816;2023-02-28T08:36:50;13.18;;;11.98;;
4634;SDS011;2330;48.158;11.816;2023-02-28T08:39:16;13.82;;;12.60;;
4634;SDS011;2330;48.158;11.816;2023-02-28T08:41:44;13.57;;;12.48;;
4634;SDS011;2330;48.158;11.816;2023-02-28T08:44:13;13.05;;;12.05;;
4634;SDS011;2330;48.158;11.816;2023-02-28T08:46:39;15.00;;;13.77;;
4634;SDS011;2330;48.158;11.816;2023-02-28T08:49:06;14.20;;;13.07;;
4634;SDS011;2330;48.158;11.816;2023-02-28T08:51:33;13.45;;;12.32;;
4634;SDS011;2330;48.158;11.816;2023-02-28T08:54:00;13.60;;;11.40;;
4634;SDS011;2330;48.158;11.816;2023-02-28T08:56:27;13.88;;;12.68;;
4634;SDS011;2330;48.158;11.816;2023-02-28T08:58:55;12.90;;;11.65;;
4634;SDS011;2330;48.158;11.816;2023-02-28T09:01:26;12.68;;;11.57;;
4634;SDS011;2330;48.158;11.816;2023-02-28T09:03:55;12.15;;;11.15;;
4634;SDS011;2330;48.158;11.816;2023-02-28T09:06:24;14.27;;;13.05;;
4634;SDS011;2330;48.158;11.816;2023-02-28T09:08:52;12.18;;;11.07;;
4634;SDS011;2330;48.158;11.816;2023-02-28T09:11:24;13.77;;;12.68;;
4634;SDS011;2330;48.158;11.816;2023-02-28T09:13:51;13.60;;;12.20;;
4634;SDS011;2330;48.158;11.816;2023-02-28T09:16:18;14.20;;;12.50;;
4634;SDS011;2330;48.158;11.816;2023-02-28T09:18:45;12.80;;;11.80;;
4634;SDS011;2330;48.158;11.816;2023-02-28T09:21:13;12.23;;;11.23;;
4634;SDS011;2330;48.158;11.816;2023-02-28T09:23:42;13.05;;;11.85;;
4634;SDS011;2330;48.158;11.816;2023-02-28T09:26:13;12.52;;;11.52;;
4634;SDS011;2330;48.158;11.816;2023-02-28T09:28:44;13.07;;;11.95;;
4634;SDS011;2330;48.158;11.816;2023-02-28T09:31:12;13.20;;;12.02;;
4634;SDS011;2330;48.158;11.816;2023-02-28T09:33:41;14.15;;;13.05;;
4634;SDS011;2330;48.158;11.816;2023-02-28T09:36:08;12.57;;;11.55;;
4634;SDS011;2330;48.158;11.816;2023-02-28T09:38:35;11.82;;;10.93;;
4634;SDS011;2330;48.158;11.816;2023-02-28T09:41:03;13.10;;;11.80;;
4634;SDS011;2330;48.158;11.816;2023-02-28T09:43:37;14.43;;;12.85;;
4634;SDS011;2330;48.158;11.816;2023-02-28T09:46:18;13.75;;;12.55;;
4634;SDS011;2330;48.158;11.816;2023-02-28T09:48:47;12.93;;;11.93;;
4634;SDS011;2330;48.158;11.816;2023-02-28T09:51:30;13.05;;;11.95;;
4634;SDS011;2330;48.158;11.816;2023-02-28T09:54:06;12.90;;;11.70;;
4634;SDS011;2330;48.158;11.816;2023-02-28T09:56:41;12.95;;;11.73;;
4634;SDS011;2330;48.158;11.816;2023-02-28T10:01:42;12.80;;;11.70;;
4634;SDS011;2330;48.158;11.816;2023-02-28T10:06:58;13.77;;;12.55;;
4634;SDS011;2330;48.158;11.816;2023-02-28T10:09:29;12.77;;;11.70;;
4634;SDS011;2330;48.158;11.816;2023-02-28T10:12:04;11.00;;;9.95;;
4634;SDS011;2330;48.158;11.816;2023-02-28T10:14:33;13.13;;;12.02;;
4634;SDS011;2330;48.158;11.816;2023-02-28T10:17:02;11.98;;;11.00;;
4634;SDS011;2330;48.158;11.816;2023-02-28T10:24:53;13.15;;;12.05;;
4634;SDS011;2330;48.158;11.816;2023-02-28T10:27:27;11.95;;;11.02;;
4634;SDS011;2330;48.158;11.816;2023-02-28T10:29:56;12.27;;;11.18;;
4634;SDS011;2330;48.158;11.816;2023-02-28T10:32:32;12.20;;;11.10;;
4634;SDS011;2330;48.158;11.816;2023-02-28T10:37:41;12.00;;;10.63;;
4634;SDS011;2330;48.158;11.816;2023-02-28T10:45:30;11.48;;;10.45;;
4634;SDS011;2330;48.158;11.816;2023-02-28T10:48:02;12.13;;;10.82;;
4634;SDS011;2330;48.158;11.816;2023-02-28T10:50:35;11.98;;;10.90;;
4634;SDS011;2330;48.158;11.816;2023-02-28T10:53:14;11.43;;;10.52;;
4634;SDS011;2330;48.158;11.816;2023-02-28T10:55:42;12.30;;;11.20;;
4634;SDS011;2330;48.158;11.816;2023-02-28T10:58:25;11.05;;;10.15;;
4634;SDS011;2330;48.158;11.816;2023-02-28T11:00:57;11.20;;;10.20;;
4634;SDS011;2330;48.158;11.816;2023-02-28T11:03:28;12.55;;;11.35;;
4634;SDS011;2330;48.158;11.816;2023-02-28T11:05:57;12.85;;;10.77;;
4634;SDS011;2330;48.158;11.816;2023-02-28T11:08:30;11.65;;;10.55;;
4634;SDS011;2330;48.158;11.816;2023-02-28T11:10:58;11.57;;;10.55;;
4634;SDS011;2330;48.158;11.816;2023-02-28T11:13:34;11.32;;;10.43;;
4634;SDS011;2330;48.158;11.816;2023-02-28T11:16:05;12.07;;;10.88;;
4634;SDS011;2330;48.158;11.816;2023-02-28T11:18:44;12.02;;;10.98;;
4634;SDS011;2330;48.158;11.816;2023-02-28T11:21:22;10.45;;;9.45;;
4634;SDS011;2330;48.158;11.816;2023-02-28T11:23:53;10.32;;;9.48;;
4634;SDS011;2330;48.158;11.816;2023-02-28T11:26:41;10.25;;;9.45;;
4634;SDS011;2330;48.158;11.816;2023-02-28T11:29:19;11.98;;;10.82;;
4634;SDS011;2330;48.158;11.816;2023-02-28T11:32:02;10.55;;;9.55;;
4634;SDS011;2330;48.158;11.816;2023-02-28T11:37:38;11.20;;;9.48;;
4634;SDS011;2330;48.158;11.816;2023-02-28T11:40:08;10.93;;;9.95;;
4634;SDS011;2330;48.158;11.816;2023-02-28T11:42:50;10.55;;;9.55;;
4634;SDS011;2330;48.158;11.816;2023-02-28T11:45:31;9.95;;;9.07;;
4634;SDS011;2330;48.158;11.816;2023-02-28T11:48:22;9.07;;;8.38;;
4634;SDS011;2330;48.158;11.816;2023-02-28T11:51:22;10.38;;;9.13;;
4634;SDS011;2330;48.158;11.816;2023-02-28T11:56:46;9.77;;;8.98;;
4634;SDS011;2330;48.158;11.816;2023-02-28T11:59:32;9.45;;;8.45;;
4634;SDS011;2330;48.158;11.816;2023-02-28T12:02:18;10.07;;;9.25;;
4634;SDS011;2330;48.158;11.816;2023-02-28T12:26:41;9.40;;;8.60;;
4634;SDS011;2330;48.158;11.816;2023-02-28T12:29:15;10.88;;;9.88;;
4634;SDS011;2330;48.158;11.816;2023-02-28T12:34:33;9.65;;;8.85;;
4634;SDS011;2330;48.158;11.816;2023-02-28T12:37:06;10.00;;;9.20;;
4634;SDS011;2330;48.158;11.816;2023-02-28T12:39:38;10.02;;;9.13;;
4634;SDS011;2330;48.158;11.816;2023-02-28T12:42:23;10.27;;;9.40;;
4634;SDS011;2330;48.158;11.816;2023-02-28T12:45:10;9.20;;;8.40;;
4634;SDS011;2330;48.158;11.816;2023-02-28T12:47:43;9.45;;;8.55;;
4634;SDS011;2330;48.158;11.816;2023-02-28T12:50:12;9.27;;;8.48;;
4634;SDS011;2330;48.158;11.816;2023-02-28T12:55:23;9.55;;;8.68;;
4634;SDS011;2330;48.158;11.816;2023-02-28T12:58:13;9.63;;;8.82;;
4634;SDS011;2330;48.158;11.816;2023-02-28T13:01:04;10.57;;;9.57;;
4634;SDS011;2330;48.158;11.816;2023-02-28T13:09:32;9.85;;;9.05;;
4634;SDS011;2330;48.158;11.816;2023-02-28T13:11:59;9.65;;;8.63;;
4634;SDS011;2330;48.158;11.816;2023-02-28T13:17:01;9.77;;;8.98;;
4634;SDS011;2330;48.158;11.816;2023-02-28T13:19:29;8.98;;;8.18;;
4634;SDS011;2330;48.158;11.816;2023-02-28T13:21:58;10.00;;;9.10;;
4634;SDS011;2330;48.158;11.816;2023-02-28T13:24:43;9.73;;;8.93;;
4634;SDS011;2330;48.158;11.816;2023-02-28T13:29:44;9.67;;;8.80;;
4634;SDS011;2330;48.158;11.816;2023-02-28T13:34:41;9.53;;;8.67;;
4634;SDS011;2330;48.158;11.816;2023-02-28T13:37:34;9.43;;;8.53;;
4634;SDS011;2330;48.158;11.816;2023-02-28T13:45:20;9.37;;;8.47;;
4634;SDS011;2330;48.158;11.816;2023-02-28T13:47:58;8.80;;;8.00;;
4634;SDS011;2330;48.158;11.816;2023-02-28T13:55:58;9.10;;;8.35;;
4634;SDS011;2330;48.158;11.816;2023-02-28T14:01:14;8.30;;;7.60;;
4634;SDS011;2330;48.158;11.816;2023-02-28T14:06:55;8.40;;;7.77;;
4634;SDS011;2330;48.158;11.816;2023-02-28T14:11:56;10.88;;;9.10;;
4634;SDS011;2330;48.158;11.816;2023-02-28T14:17:03;9.65;;;8.75;;
4634;SDS011;2330;48.158;11.816;2023-02-28T14:19:32;9.60;;;8.63;;
4634;SDS011;2330;48.158;11.816;2023-02-28T14:33:34;9.10;;;8.20;;
4634;SDS011;2330;48.158;11.816;2023-02-28T14:36:30;10.20;;;8.88;;
4634;SDS011;2330;48.158;11.816;2023-02-28T14:39:10;9.38;;;8.18;;
4634;SDS011;2330;48.158;11.816;2023-02-28T14:41:40;8.50;;;7.82;;
4634;SDS011;2330;48.158;11.816;2023-02-28T14:44:22;9.50;;;8.60;;
4634;SDS011;2330;48.158;11.816;2023-02-28T14:46:59;8.93;;;8.20;;
4634;SDS011;2330;48.158;11.816;2023-02-28T14:49:41;9.50;;;8.60;;
4634;SDS011;2330;48.158;11.816;2023-02-28T14:52:15;9.10;;;8.10;;
4634;SDS011;2330;48.158;11.816;2023-02-28T14:54:44;9.65;;;8.85;;
4634;SDS011;2330;48.158;11.816;2023-02-28T14:57:30;9.73;;;8.82;;
4634;SDS011;2330;48.158;11.816;2023-02-28T15:00:02;9.45;;;8.65;;
4634;SDS011;2330;48.158;11.816;2023-02-28T15:02:37;8.80;;;8.10;;
4634;SDS011;2330;48.158;11.816;2023-02-28T15:07:44;8.68;;;7.88;;
4634;SDS011;2330;48.158;11.816;2023-02-28T15:10:25;9.27;;;8.40;;
4634;SDS011;2330;48.158;11.816;2023-02-28T15:18:26;9.05;;;8.35;;
4634;SDS011;2330;48.158;11.816;2023-02-28T15:20:58;9.55;;;8.82;;
4634;SDS011;2330;48.158;11.816;2023-02-28T15:23:32;9.35;;;8.55;;
4634;SDS011;2330;48.158;11.816;2023-02-28T15:26:01;8.30;;;7.60;;
4634;SDS011;2330;48.158;11.816;2023-02-28T15:28:28;9.75;;;8.95;;
4634;SDS011;2330;48.158;11.816;2023-02-28T15:30:57;10.48;;;9.43;;
4634;SDS011;2330;48.158;11.816;2023-02-28T15:33:27;15.70;;;12.85;;
4634;SDS011;2330;48.158;11.816;2023-02-28T15:36:15;10.65;;;9.55;;
4634;SDS011;2330;48.158;11.816;2023-02-28T15:38:49;9.85;;;8.95;;
4634;SDS011;2330;48.158;11.816;2023-02-28T15:41:21;17.63;;;14.25;;
4634;SDS011;2330;48.158;11.816;2023-02-28T15:49:37;10.57;;;9.50;;
4634;SDS011;2330;48.158;11.816;2023-02-28T15:52:12;10.73;;;9.63;;
4634;SDS011;2330;48.158;11.816;2023-02-28T15:54:42;10.40;;;9.50;;
4634;SDS011;2330;48.158;11.816;2023-02-28T15:57:13;9.95;;;8.95;;
4634;SDS011;2330;48.158;11.816;2023-02-28T15:59:54;10.48;;;9.57;;
4634;SDS011;2330;48.158;11.816;2023-02-28T16:07:40;9.73;;;8.82;;
4634;SDS011;2330;48.158;11.816;2023-02-28T16:10:09;11.50;;;10.52;;
4634;SDS011;2330;48.158;11.816;2023-02-28T16:12:38;10.25;;;9.45;;
4634;SDS011;2330;48.158;11.816;2023-02-28T16:15:07;11.57;;;10.57;;
4634;SDS011;2330;48.158;11.816;2023-02-28T16:17:42;12.00;;;10.90;;
4634;SDS011;2330;48.158;11.816;2023-02-28T16:22:44;12.80;;;11.70;;
4634;SDS011;2330;48.158;11.816;2023-02-28T16:25:14;15.85;;;14.25;;
4634;SDS011;2330;48.158;11.816;2023-02-28T16:27:44;12.95;;;11.75;;
4634;SDS011;2330;48.158;11.816;2023-02-28T16:30:17;11.77;;;10.77;;
4634;SDS011;2330;48.158;11.816;2023-02-28T16:32:48;10.73;;;9.82;;
4634;SDS011;2330;48.158;11.816;2023-02-28T16:35:18;11.25;;;10.35;;
4634;SDS011;2330;48.158;11.816;2023-02-28T16:37:46;10.52;;;9.65;;
4634;SDS011;2330;48.158;11.816;2023-02-28T16:40:17;10.68;;;9.68;;
4634;SDS011;2330;48.158;11.816;2023-02-28T16:42:47;11.73;;;10.68;;
4634;SDS011;2330;48.158;11.816;2023-02-28T16:45:26;10.10;;;9.20;;
4634;SDS011;2330;48.158;11.816;2023-02-28T16:47:54;10.30;;;9.50;;
4634;SDS011;2330;48.158;11.816;2023-02-28T16:50:22;10.88;;;9.98;;
4634;SDS011;2330;48.158;11.816;2023-02-28T16:52:52;10.05;;;9.20;;
4634;SDS011;2330;48.158;11.816;2023-02-28T16:55:21;10.73;;;9.73;;
4634;SDS011;2330;48.158;11.816;2023-02-28T16:57:50;10.88;;;9.85;;
4634;SDS011;2330;48.158;11.816;2023-02-28T17:00:19;10.40;;;9.60;;
4634;SDS011;2330;48.158;11.816;2023-02-28T17:02:47;11.27;;;10.38;;
4634;SDS011;2330;48.158;11.816;2023-02-28T17:05:14;11.82;;;10.73;;
4634;SDS011;2330;48.158;11.816;2023-02-28T17:07:41;11.10;;;10.18;;
4634;SDS011;2330;48.158;11.816;2023-02-28T17:10:16;9.40;;;8.55;;
4634;SDS011;2330;48.158;11.816;2023-02-28T17:12:51;11.75;;;10.75;;
4634;SDS011;2330;48.158;11.816;2023-02-28T17:15:21;10.45;;;9.55;;
4634;SDS011;2330;48.158;11.816;2023-02-28T17:17:48;11.18;;;10.18;;
4634;SDS011;2330;48.158;11.816;2023-02-28T17:20:20;10.80;;;9.73;;
4634;SDS011;2330;48.158;11.816;2023-02-28T17:22:53;11.85;;;10.75;;
4634;SDS011;2330;48.158;11.816;2023-02-28T17:25:20;11.43;;;10.45;;
4634;SDS011;2330;48.158;11.816;2023-02-28T17:27:47;12.25;;;11.15;;
4634;SDS011;2330;48.158;11.816;2023-02-28T17:30:15;16.40;;;13.48;;
4634;SDS011;2330;48.158;11.816;2023-02-28T17:32:47;15.30;;;13.70;;
4634;SDS011;2330;48.158;11.816;2023-02-28T17:35:15;13.93;;;12.52;;
4634;SDS011;2330;48.158;11.816;2023-02-28T17:37:42;13.10;;;11.90;;
4634;SDS011;2330;48.158;11.816;2023-02-28T17:40:12;12.45;;;10.05;;
4634;SDS011;2330;48.158;11.816;2023-02-28T17:42:44;11.30;;;10.35;;
4634;SDS011;2330;48.158;11.816;2023-02-28T17:45:11;10.63;;;9.73;;